Ridgebury Julia M — V7IH4 — position and weather

sailwx.info

Track history (hours):
 
Tides and Currents Weather Stations Pressure Air Temp Water Temp Dewpoint Dewpoint Depression Visibility Wind Speed Wind Dir Waves Ship Positions

Ridgebury Julia M

Last reported at 2018-Jul-20 16:18 UTC. Time now 2018-Jul-20 16:36 UTC.
Position N 30°31' W 123°26'.

Length 180 m; draft 7 m.

Type: Ship. MMSI: 538005939.

Date/timePositionNaut miles runAvg speedWind from/ knotsBaromVisibWave heightAir tempDewpointWater temp
2018-Jul-20 16:18N 30°31' W 123°26'412.4
2018-Jul-20 16:00N 30°29' W 123°22'612.6
2018-Jul-20 15:30N 30°26' W 123°16'712.9
2018-Jul-20 14:59N 30°22' W 123°10'612.5
2018-Jul-20 14:30N 30°19' W 123°04'612.5
2018-Jul-20 14:00N 30°15' W 122°58'912.7
2018-Jul-20 13:19N 30°10' W 122°50'412.7
2018-Jul-20 13:00N 30°08' W 122°46'612.6
2018-Jul-20 12:30N 30°05' W 122°40'612.5
2018-Jul-20 12:00N 30°01' W 122°34'912.5
2018-Jul-20 11:19N 29°57' W 122°25'412.4
2018-Jul-20 11:00N 29°55' W 122°21'712.5
2018-Jul-20 10:29N 29°51' W 122°15'612.6
2018-Jul-20 09:59N 29°48' W 122°09'612.3
2018-Jul-20 09:28N 29°44' W 122°03'712.4
2018-Jul-20 08:54N 29°40' W 121°56'512.6
2018-Jul-20 08:30N 29°38' W 121°51'612.5
2018-Jul-20 08:00N 29°34' W 121°45'612.6
2018-Jul-20 07:30N 29°31' W 121°39'712.7
2018-Jul-20 06:55N 29°27' W 121°32'512.5
2018-Jul-20 06:30N 29°24' W 121°27'612.4
2018-Jul-20 06:01N 29°21' W 121°21'612.2
2018-Jul-20 05:30N 29°17' W 121°15'612.5
2018-Jul-20 05:00N 29°14' W 121°09'712.5
2018-Jul-20 04:27N 29°10' W 121°03'612.5
2018-Jul-20 03:59N 29°07' W 120°57'712.7
2018-Jul-20 03:26N 29°03' W 120°50'512.5
2018-Jul-20 03:00N 28°60' W 120°45'612.8
2018-Jul-20 02:30N 28°56' W 120°39'612.7
2018-Jul-20 02:00N 28°52' W 120°33'612.7
2018-Jul-20 01:30N 28°49' W 120°27'612.6
2018-Jul-20 01:00N 28°45' W 120°22'712.5
2018-Jul-20 00:29N 28°42' W 120°16'612.7
2018-Jul-20 00:00N 28°38' W 120°10'712.8
2018-Jul-19 23:29N 28°34' W 120°04'1012.9
2018-Jul-19 22:41N 28°28' W 119°54'1613.1
2018-Jul-19 21:26N 28°19' W 119°39'  
2018-Jul-12 12:59N 30°38' W 116°40'3813.4
2018-Jul-12 10:08N 31°15' W 116°51'214.4
2018-Jul-12 10:00N 31°17' W 116°51'2014.0
2018-Jul-12 08:35N 31°36' W 116°56'2513.7
2018-Jul-12 06:45N 32°01' W 117°02'313.0
2018-Jul-12 06:30N 32°04' W 117°03'713.0
2018-Jul-12 06:00N 32°10' W 117°04'913.0
2018-Jul-12 05:21N 32°19' W 117°05'2 5.0
2018-Jul-12 05:00N 32°20' W 117°06'0 0.4
2018-Jul-12 04:26N 32°21' W 117°06'0 0.1
2018-Jul-12 03:08N 32°21' W 117°06'0 0.0
2018-Jul-11 01:15N 32°21' W 117°06'0 0.2
2018-Jul-11 01:00N 32°21' W 117°06'1 1.2
2018-Jul-11 00:29N 32°21' W 117°06'1 2.7
2018-Jul-11 00:00N 32°21' W 117°07'3 5.2
2018-Jul-10 23:30N 32°20' W 117°10'4 7.9
2018-Jul-10 23:00N 32°17' W 117°13'611.6
2018-Jul-10 22:30N 32°13' W 117°18'611.9
2018-Jul-10 22:00N 32°09' W 117°23'612.1
2018-Jul-10 21:29N 32°04' W 117°28'611.9
2018-Jul-10 21:00N 32°01' W 117°33'611.7
2018-Jul-10 20:30N 31°56' W 117°38'611.9
2018-Jul-10 20:01N 31°52' W 117°43'611.6
2018-Jul-10 19:30N 31°52' W 117°50'611.7
2018-Jul-10 19:00N 31°52' W 117°57'612.2
2018-Jul-10 18:30N 31°51' W 118°04'713.1
2018-Jul-10 18:00N 31°51' W 118°11'612.7
2018-Jul-10 17:30N 31°52' W 118°19'713.2
2018-Jul-10 17:00N 31°54' W 118°26'612.9
2018-Jul-10 16:30N 31°56' W 118°33'  
Track history (hours):
 
Tides and Currents Weather Stations Pressure Air Temp Water Temp Dewpoint Dewpoint Depression Visibility Wind Speed Wind Dir Waves Ship Positions

Ridgebury Julia M

Last reported at 2018-Jul-20 16:18 UTC. Time now 2018-Jul-20 16:36 UTC.
Position N 30°31' W 123°26'.

Length 180 m; draft 7 m.

Type: Ship. MMSI: 538005939.

Date/timePositionNaut miles runAvg speedWind from/ knotsBaromVisibWave heightAir tempDewpointWater temp
2018-Jul-20 16:18N 30°31' W 123°26'412.4
2018-Jul-20 16:00N 30°29' W 123°22'612.6
2018-Jul-20 15:30N 30°26' W 123°16'712.9
2018-Jul-20 14:59N 30°22' W 123°10'612.5
2018-Jul-20 14:30N 30°19' W 123°04'612.5
2018-Jul-20 14:00N 30°15' W 122°58'912.7
2018-Jul-20 13:19N 30°10' W 122°50'412.7
2018-Jul-20 13:00N 30°08' W 122°46'612.6
2018-Jul-20 12:30N 30°05' W 122°40'612.5
2018-Jul-20 12:00N 30°01' W 122°34'912.5
2018-Jul-20 11:19N 29°57' W 122°25'412.4
2018-Jul-20 11:00N 29°55' W 122°21'712.5
2018-Jul-20 10:29N 29°51' W 122°15'612.6
2018-Jul-20 09:59N 29°48' W 122°09'612.3
2018-Jul-20 09:28N 29°44' W 122°03'712.4
2018-Jul-20 08:54N 29°40' W 121°56'512.6
2018-Jul-20 08:30N 29°38' W 121°51'612.5
2018-Jul-20 08:00N 29°34' W 121°45'612.6
2018-Jul-20 07:30N 29°31' W 121°39'712.7
2018-Jul-20 06:55N 29°27' W 121°32'512.5
2018-Jul-20 06:30N 29°24' W 121°27'612.4
2018-Jul-20 06:01N 29°21' W 121°21'612.2
2018-Jul-20 05:30N 29°17' W 121°15'612.5
2018-Jul-20 05:00N 29°14' W 121°09'712.5
2018-Jul-20 04:27N 29°10' W 121°03'612.5
2018-Jul-20 03:59N 29°07' W 120°57'712.7
2018-Jul-20 03:26N 29°03' W 120°50'512.5
2018-Jul-20 03:00N 28°60' W 120°45'612.8
2018-Jul-20 02:30N 28°56' W 120°39'612.7
2018-Jul-20 02:00N 28°52' W 120°33'612.7
2018-Jul-20 01:30N 28°49' W 120°27'612.6
2018-Jul-20 01:00N 28°45' W 120°22'712.5
2018-Jul-20 00:29N 28°42' W 120°16'612.7
2018-Jul-20 00:00N 28°38' W 120°10'712.8
2018-Jul-19 23:29N 28°34' W 120°04'1012.9
2018-Jul-19 22:41N 28°28' W 119°54'1613.1
2018-Jul-19 21:26N 28°19' W 119°39'  
2018-Jul-12 12:59N 30°38' W 116°40'3813.4
2018-Jul-12 10:08N 31°15' W 116°51'214.4
2018-Jul-12 10:00N 31°17' W 116°51'2014.0
2018-Jul-12 08:35N 31°36' W 116°56'2513.7
2018-Jul-12 06:45N 32°01' W 117°02'313.0
2018-Jul-12 06:30N 32°04' W 117°03'713.0
2018-Jul-12 06:00N 32°10' W 117°04'913.0
2018-Jul-12 05:21N 32°19' W 117°05'2 5.0
2018-Jul-12 05:00N 32°20' W 117°06'0 0.4
2018-Jul-12 04:26N 32°21' W 117°06'0 0.1
2018-Jul-12 03:08N 32°21' W 117°06'0 0.0
2018-Jul-11 01:15N 32°21' W 117°06'0 0.2
2018-Jul-11 01:00N 32°21' W 117°06'1 1.2
2018-Jul-11 00:29N 32°21' W 117°06'1 2.7
2018-Jul-11 00:00N 32°21' W 117°07'3 5.2
2018-Jul-10 23:30N 32°20' W 117°10'4 7.9
2018-Jul-10 23:00N 32°17' W 117°13'611.6
2018-Jul-10 22:30N 32°13' W 117°18'611.9
2018-Jul-10 22:00N 32°09' W 117°23'612.1
2018-Jul-10 21:29N 32°04' W 117°28'611.9
2018-Jul-10 21:00N 32°01' W 117°33'611.7
2018-Jul-10 20:30N 31°56' W 117°38'611.9
2018-Jul-10 20:01N 31°52' W 117°43'611.6
2018-Jul-10 19:30N 31°52' W 117°50'611.7
2018-Jul-10 19:00N 31°52' W 117°57'612.2
2018-Jul-10 18:30N 31°51' W 118°04'713.1
2018-Jul-10 18:00N 31°51' W 118°11'612.7
2018-Jul-10 17:30N 31°52' W 118°19'713.2
2018-Jul-10 17:00N 31°54' W 118°26'612.9
2018-Jul-10 16:30N 31°56' W 118°33'  

Dump ship's entire track history